createdAt,value
2023-01-29T00:01:25.686Z,94.30
2023-01-29T00:06:28.065Z,94.30
2023-01-29T00:11:31.354Z,94.10
2023-01-29T00:16:33.683Z,94.60
2023-01-29T00:21:36.349Z,95.10
2023-01-29T00:26:42.463Z,94.80
2023-01-29T00:31:45.585Z,95.20
2023-01-29T00:36:47.940Z,95.20
2023-01-29T00:42:08.913Z,95.80
2023-01-29T00:47:29.844Z,95.30
2023-01-29T00:52:32.292Z,95.50
2023-01-29T00:57:35.836Z,95.60
2023-01-29T01:02:56.931Z,95.60
2023-01-29T01:07:59.406Z,95.90
2023-01-29T01:13:04.784Z,96.30
2023-01-29T01:18:08.007Z,96.40
2023-01-29T01:23:10.603Z,96.40
2023-01-29T01:28:13.339Z,96.60
2023-01-29T01:33:15.833Z,96.90
2023-01-29T01:38:18.140Z,97.10
2023-01-29T01:43:20.465Z,97.40
2023-01-29T01:48:26.503Z,97.50
2023-01-29T01:53:38.512Z,97.70
2023-01-29T01:58:50.488Z,97.60
2023-01-29T02:04:21.634Z,98.20
2023-01-29T02:09:35.264Z,98.10
2023-01-29T02:14:40.147Z,98.40
2023-01-29T02:19:54.540Z,98.60
2023-01-29T02:25:33.083Z,98.70
2023-01-29T02:30:57.165Z,99.20
2023-01-29T02:36:13.006Z,99.00
2023-01-29T02:41:22.976Z,99.50
2023-01-29T02:47:00.329Z,99.20
2023-01-29T02:52:18.110Z,99.30
2023-01-29T02:57:30.898Z,99.40
2023-01-29T03:02:51.107Z,99.50
2023-01-29T03:07:58.655Z,99.50
2023-01-29T03:13:28.641Z,99.30
2023-01-29T03:18:41.238Z,99.30
2023-01-29T03:24:02.120Z,99.40
2023-01-29T03:29:25.104Z,99.10
2023-01-29T03:34:38.866Z,98.60
2023-01-29T03:39:41.887Z,99.30
2023-01-29T03:44:44.174Z,98.90
2023-01-29T03:50:24.457Z,98.70
2023-01-29T03:55:46.740Z,99.10
2023-01-29T04:00:53.952Z,98.60
2023-01-29T04:06:16.068Z,98.50
2023-01-29T04:11:34.005Z,98.90
2023-01-29T04:16:40.910Z,98.80
2023-01-29T04:22:23.004Z,98.30
2023-01-29T04:27:41.349Z,98.90
2023-01-29T04:33:02.597Z,99.50
2023-01-29T04:38:19.989Z,99.80
2023-01-29T04:43:38.623Z,99.70
2023-01-29T04:49:19.849Z,99.90
2023-01-29T04:54:43.314Z,99.90
2023-01-29T04:59:53.451Z,99.90
2023-01-29T05:04:58.513Z,99.90
2023-01-29T05:10:00.886Z,99.90
2023-01-29T05:15:08.251Z,99.90
2023-01-29T05:20:12.070Z,99.90
2023-01-29T05:25:27.154Z,99.90
2023-01-29T05:30:29.766Z,99.90
2023-01-29T05:35:32.600Z,99.90
2023-01-29T05:40:35.084Z,99.90
2023-01-29T05:45:37.378Z,99.90
2023-01-29T05:50:39.683Z,99.90
2023-01-29T05:55:48.614Z,99.90
2023-01-29T06:00:50.949Z,99.90
2023-01-29T06:05:53.278Z,99.90
2023-01-29T06:10:55.565Z,99.90
2023-01-29T06:15:57.939Z,99.90
2023-01-29T06:21:02.750Z,99.90
2023-01-29T06:26:10.765Z,99.90
2023-01-29T06:31:33.094Z,99.90
2023-01-29T06:36:35.899Z,99.90
2023-01-29T06:41:38.333Z,99.90
2023-01-29T06:46:40.712Z,99.90
2023-01-29T06:51:42.990Z,99.90
2023-01-29T06:56:45.271Z,99.90
2023-01-29T07:01:47.697Z,99.90
2023-01-29T07:06:50.152Z,99.90
2023-01-29T07:11:52.909Z,99.90
2023-01-29T07:16:55.226Z,99.90
2023-01-29T07:21:57.590Z,99.90
2023-01-29T07:27:00.096Z,99.90
2023-01-29T07:32:02.458Z,99.90
2023-01-29T07:37:06.265Z,99.90
2023-01-29T07:42:08.603Z,99.90
2023-01-29T07:47:11.769Z,99.90
2023-01-29T07:52:14.072Z,99.90
2023-01-29T07:57:16.404Z,99.90
2023-01-29T08:02:18.708Z,99.90
2023-01-29T08:07:21.195Z,99.90
2023-01-29T08:12:23.986Z,99.90
2023-01-29T08:17:26.324Z,99.90
2023-01-29T08:22:28.626Z,99.90
2023-01-29T08:27:30.929Z,99.90
2023-01-29T08:32:33.446Z,99.90
2023-01-29T08:37:35.731Z,99.90
2023-01-29T08:42:38.129Z,99.90
2023-01-29T08:47:48.990Z,99.90
2023-01-29T08:52:51.444Z,99.90
2023-01-29T08:57:54.079Z,99.90
2023-01-29T09:02:56.478Z,99.90
2023-01-29T09:07:59.151Z,99.90
2023-01-29T09:13:02.091Z,99.90
2023-01-29T09:18:05.417Z,99.90
2023-01-29T09:23:09.819Z,99.90
2023-01-29T09:28:12.335Z,99.90
2023-01-29T09:33:15.157Z,99.90
2023-01-29T09:38:17.444Z,99.90
2023-01-29T09:43:37.764Z,99.90
2023-01-29T09:48:41.247Z,99.90
2023-01-29T09:53:53.938Z,99.90
2023-01-29T09:59:01.582Z,99.90
2023-01-29T10:04:34.554Z,99.90
2023-01-29T10:09:48.952Z,99.90
2023-01-29T10:15:20.041Z,99.90
2023-01-29T10:20:46.132Z,99.90
2023-01-29T10:25:49.006Z,99.90
2023-01-29T10:31:20.766Z,99.90
2023-01-29T10:36:38.532Z,99.90
2023-01-29T10:42:11.676Z,99.90
2023-01-29T10:47:19.630Z,99.90
2023-01-29T10:52:39.737Z,99.90
2023-01-29T10:58:06.158Z,99.90
2023-01-29T11:03:34.914Z,99.90
2023-01-29T11:09:09.970Z,99.90
2023-01-29T11:14:22.974Z,99.90
2023-01-29T11:19:44.642Z,99.90
2023-01-29T11:25:18.288Z,99.90
2023-01-29T11:30:28.354Z,99.90
2023-01-29T11:35:33.195Z,99.90
2023-01-29T11:40:38.737Z,99.90
2023-01-29T11:45:41.123Z,99.90
2023-01-29T11:50:58.415Z,99.90
2023-01-29T11:56:03.413Z,99.90
2023-01-29T12:01:05.945Z,99.90
2023-01-29T12:06:33.293Z,99.90
2023-01-29T12:11:36.052Z,99.90
2023-01-29T12:16:58.615Z,99.90
2023-01-29T12:22:16.089Z,99.90
2023-01-29T12:27:46.101Z,99.90
2023-01-29T12:33:08.760Z,99.90
2023-01-29T12:38:22.195Z,99.90
2023-01-29T12:43:35.809Z,99.90
2023-01-29T12:48:42.524Z,99.90
2023-01-29T12:54:06.494Z,99.90
2023-01-29T12:59:30.204Z,99.90
2023-01-29T13:04:40.211Z,99.90
2023-01-29T13:09:48.445Z,99.90
2023-01-29T13:15:02.780Z,99.90
2023-01-29T13:20:29.976Z,99.90
2023-01-29T13:25:32.571Z,99.90
2023-01-29T13:30:37.278Z,99.90
2023-01-29T13:35:42.729Z,99.90
2023-01-29T13:40:50.105Z,99.90
2023-01-29T13:45:54.101Z,99.90
2023-01-29T13:51:01.021Z,99.90
2023-01-29T13:56:34.292Z,99.90
2023-01-29T14:01:48.562Z,99.90
2023-01-29T14:07:03.262Z,99.90
2023-01-29T14:12:25.603Z,99.90
2023-01-29T14:17:29.370Z,99.90
2023-01-29T14:22:33.856Z,99.90
2023-01-29T14:27:37.523Z,99.90
2023-01-29T14:32:40.520Z,99.90
2023-01-29T14:37:47.263Z,99.90
2023-01-29T14:43:08.824Z,99.90
2023-01-29T14:48:11.074Z,99.90
2023-01-29T14:53:40.312Z,99.90
2023-01-29T14:58:47.673Z,99.90
2023-01-29T15:03:53.625Z,99.90
2023-01-29T15:09:04.797Z,99.90
2023-01-29T15:14:18.052Z,99.90
2023-01-29T15:19:34.626Z,99.90
2023-01-29T15:24:38.875Z,99.90
2023-01-29T15:29:43.692Z,99.90
2023-01-29T15:34:46.642Z,99.90
2023-01-29T15:39:50.003Z,99.90
2023-01-29T15:44:56.596Z,99.90
2023-01-29T15:50:00.372Z,99.90
2023-01-29T15:55:06.113Z,99.90
2023-01-29T16:00:25.067Z,99.90
2023-01-29T16:05:30.181Z,99.90
2023-01-29T16:10:33.661Z,99.90
2023-01-29T16:15:37.971Z,99.90
2023-01-29T16:20:46.122Z,99.90
2023-01-29T16:25:49.626Z,99.90
2023-01-29T16:30:58.091Z,99.90
2023-01-29T16:36:00.770Z,99.90
2023-01-29T16:41:08.239Z,99.90
2023-01-29T16:46:26.285Z,99.90
2023-01-29T16:51:31.187Z,99.90
2023-01-29T16:56:34.672Z,99.90
2023-01-29T17:01:37.111Z,99.90
2023-01-29T17:06:42.787Z,99.90
2023-01-29T17:11:45.155Z,99.90
2023-01-29T17:16:56.301Z,99.90
2023-01-29T17:21:59.582Z,99.90
2023-01-29T17:27:02.394Z,99.90
2023-01-29T17:32:05.373Z,99.90
2023-01-29T17:37:13.149Z,99.90
2023-01-29T17:42:15.639Z,99.90
2023-01-29T17:47:17.955Z,99.90
2023-01-29T17:52:20.225Z,99.90
2023-01-29T17:57:22.541Z,99.90
2023-01-29T18:02:29.786Z,99.90
2023-01-29T18:07:32.703Z,99.90
2023-01-29T18:12:35.068Z,99.90
2023-01-29T18:17:37.647Z,99.90
2023-01-29T18:22:39.923Z,99.90
2023-01-29T18:27:42.300Z,99.90
2023-01-29T18:32:45.009Z,99.90
2023-01-29T18:37:47.800Z,99.90
2023-01-29T18:42:50.113Z,99.90
2023-01-29T18:47:52.405Z,99.90
2023-01-29T18:52:54.865Z,99.90
2023-01-29T18:58:26.771Z,99.90
2023-01-29T19:03:19.591Z,99.90
2023-01-29T19:08:21.907Z,99.90
2023-01-29T19:13:24.660Z,99.90
2023-01-29T19:18:28.203Z,99.90
2023-01-29T19:23:30.509Z,99.90
2023-01-29T19:28:33.501Z,99.90
2023-01-29T19:33:36.095Z,99.90
2023-01-29T19:38:38.794Z,99.90
2023-01-29T19:43:42.039Z,99.90
2023-01-29T19:48:45.482Z,99.90
2023-01-29T19:53:48.196Z,99.90
2023-01-29T19:58:57.444Z,99.90
2023-01-29T20:04:00.189Z,99.90
2023-01-29T20:09:02.951Z,99.90
2023-01-29T20:14:05.355Z,99.90
2023-01-29T20:19:13.423Z,99.90
2023-01-29T20:24:17.333Z,99.90
2023-01-29T20:29:19.856Z,99.90
2023-01-29T20:34:22.897Z,99.90
2023-01-29T20:39:25.356Z,99.90
2023-01-29T20:44:27.680Z,99.90
2023-01-29T20:49:29.971Z,99.90
2023-01-29T20:54:33.311Z,99.90
2023-01-29T20:59:35.747Z,99.90
2023-01-29T21:04:38.025Z,99.90
2023-01-29T21:09:40.394Z,99.90
2023-01-29T21:14:42.717Z,99.90
2023-01-29T21:19:45.679Z,99.90
2023-01-29T21:24:47.975Z,99.90
2023-01-29T21:29:50.313Z,99.90
2023-01-29T21:34:52.773Z,99.90
2023-01-29T21:39:55.131Z,99.90
2023-01-29T21:44:57.416Z,99.90
2023-01-29T21:49:59.739Z,99.90
2023-01-29T21:55:02.394Z,99.90
2023-01-29T22:00:05.342Z,99.90
2023-01-29T22:05:18.883Z,99.90
2023-01-29T22:10:22.454Z,99.90
2023-01-29T22:15:24.982Z,99.90
2023-01-29T22:20:30.652Z,99.90
2023-01-29T22:25:34.108Z,99.90
2023-01-29T22:30:36.489Z,99.90
2023-01-29T22:35:39.532Z,99.90
2023-01-29T22:40:49.459Z,99.90
2023-01-29T22:45:52.151Z,99.90
2023-01-29T22:51:10.824Z,99.90
2023-01-29T22:56:13.111Z,99.90
2023-01-29T23:01:21.281Z,99.90
2023-01-29T23:06:24.128Z,99.90
2023-01-29T23:11:26.392Z,99.90
2023-01-29T23:16:28.907Z,99.90
2023-01-29T23:21:31.267Z,99.90
2023-01-29T23:26:51.966Z,99.90
2023-01-29T23:31:54.308Z,99.90
2023-01-29T23:36:56.979Z,99.90
2023-01-29T23:41:59.812Z,99.90
2023-01-29T23:47:02.124Z,99.90
2023-01-29T23:52:04.639Z,99.90
2023-01-29T23:57:06.995Z,99.90
